createdAt,value
2018-04-26T00:01:30.904Z,100490
2018-04-26T00:03:59.315Z,100489
2018-04-26T00:06:28.353Z,100494
2018-04-26T00:08:56.672Z,100493
2018-04-26T00:11:25.073Z,100489
2018-04-26T00:13:54.263Z,100487
2018-04-26T00:16:23.664Z,100485
2018-04-26T00:18:52.864Z,100484
2018-04-26T00:21:21.323Z,100483
2018-04-26T00:23:49.613Z,100486
2018-04-26T00:26:18.118Z,100486
2018-04-26T00:28:46.396Z,100487
2018-04-26T00:31:16.640Z,100486
2018-04-26T00:33:45.094Z,100490
2018-04-26T00:36:14.194Z,100493
2018-04-26T00:38:42.565Z,100490
2018-04-26T00:41:11.624Z,100492
2018-04-26T00:43:40.048Z,100485
2018-04-26T00:46:08.388Z,100489
2018-04-26T00:48:36.720Z,100485
2018-04-26T00:51:05.150Z,100483
2018-04-26T00:53:33.549Z,100483
2018-04-26T00:56:02.690Z,100465
2018-04-26T00:58:31.029Z,100487
2018-04-26T01:01:00.156Z,100484
2018-04-26T01:03:28.515Z,100480
2018-04-26T01:05:56.848Z,100476
2018-04-26T01:08:25.170Z,100482
2018-04-26T01:10:53.554Z,100482
2018-04-26T01:13:21.900Z,100475
2018-04-26T01:15:51.050Z,100471
2018-04-26T01:18:19.593Z,100470
2018-04-26T01:20:47.939Z,100466
2018-04-26T01:23:16.243Z,100472
2018-04-26T01:25:45.564Z,100466
2018-04-26T01:28:13.925Z,100473
2018-04-26T01:30:43.216Z,100476
2018-04-26T01:33:12.296Z,100478
2018-04-26T01:35:40.592Z,100469
2018-04-26T01:38:09.700Z,100469
2018-04-26T01:40:39.085Z,100469
2018-04-26T01:43:08.114Z,100467
2018-04-26T01:45:37.051Z,100466
2018-04-26T01:48:06.420Z,100460
2018-04-26T01:50:34.751Z,100464
2018-04-26T01:53:03.895Z,100471
2018-04-26T01:55:32.328Z,100466
2018-04-26T01:58:01.420Z,100464
2018-04-26T02:00:30.520Z,100464
2018-04-26T02:02:59.795Z,100456
2018-04-26T02:05:28.167Z,100462
2018-04-26T02:07:56.540Z,100460
2018-04-26T02:10:24.824Z,100466
2018-04-26T02:12:53.089Z,100469
2018-04-26T02:15:23.619Z,100461
2018-04-26T02:17:52.560Z,100461
2018-04-26T02:20:21.879Z,100460
2018-04-26T02:22:50.240Z,100463
2018-04-26T02:25:18.711Z,100459
2018-04-26T02:27:47.778Z,100466
2018-04-26T02:30:16.400Z,100466
2018-04-26T02:32:44.769Z,100464
2018-04-26T02:35:13.860Z,100490
2018-04-26T02:37:42.921Z,100473
2018-04-26T02:40:11.454Z,100466
2018-04-26T02:42:39.766Z,100470
2018-04-26T02:45:08.064Z,100467
2018-04-26T02:47:36.382Z,100460
2018-04-26T02:50:04.811Z,100460
2018-04-26T02:52:33.199Z,100465
2018-04-26T02:55:01.633Z,100458
2018-04-26T02:57:29.951Z,100464
2018-04-26T02:59:58.281Z,100458
2018-04-26T03:02:26.576Z,100466
2018-04-26T03:04:54.934Z,100458
2018-04-26T03:07:23.323Z,100463
2018-04-26T03:09:51.588Z,100460
2018-04-26T03:12:19.999Z,100459
2018-04-26T03:14:48.306Z,100450
2018-04-26T03:17:16.611Z,100445
2018-04-26T03:19:45.113Z,100452
2018-04-26T03:22:13.494Z,100456
2018-04-26T03:24:41.780Z,100459
2018-04-26T03:27:11.225Z,100466
2018-04-26T03:29:40.339Z,100479
2018-04-26T03:32:09.420Z,100474
2018-04-26T03:34:37.740Z,100474
2018-04-26T03:37:06.176Z,100478
2018-04-26T03:39:35.235Z,100482
2018-04-26T03:42:03.574Z,100474
2018-04-26T03:44:31.840Z,100471
2018-04-26T03:47:01.046Z,100474
2018-04-26T03:49:29.565Z,100486
2018-04-26T03:51:57.820Z,100485
2018-04-26T03:54:26.539Z,100487
2018-04-26T03:56:54.951Z,100496
2018-04-26T03:59:23.254Z,100501
2018-04-26T04:02:10.611Z,100496
2018-04-26T04:04:56.758Z,100485
2018-04-26T04:07:25.126Z,100488
2018-04-26T04:09:55.030Z,100492
2018-04-26T04:12:23.319Z,100499
2018-04-26T04:14:52.505Z,100501
2018-04-26T04:17:21.072Z,100507
2018-04-26T04:19:49.479Z,100497
2018-04-26T04:22:18.686Z,100512
2018-04-26T04:24:47.761Z,100510
2018-04-26T04:27:17.185Z,100509
2018-04-26T04:29:45.520Z,100511
2018-04-26T04:32:13.847Z,100506
2018-04-26T04:34:42.279Z,100509
2018-04-26T04:37:10.841Z,100517
2018-04-26T04:39:39.137Z,100520
2018-04-26T04:42:09.635Z,100529
2018-04-26T04:44:37.948Z,100520
2018-04-26T04:47:08.581Z,100525
2018-04-26T04:49:36.875Z,100531
2018-04-26T04:52:05.249Z,100522
2018-04-26T04:54:33.600Z,100533
2018-04-26T04:57:01.895Z,100530
2018-04-26T04:59:31.734Z,100542
2018-04-26T05:02:00.857Z,100544
2018-04-26T05:04:29.970Z,100551
2018-04-26T05:06:58.251Z,100552
2018-04-26T05:09:26.595Z,100558
2018-04-26T05:11:54.938Z,100574
2018-04-26T05:14:24.161Z,100591
2018-04-26T05:16:52.471Z,100583
2018-04-26T05:19:20.769Z,100586
2018-04-26T05:21:49.084Z,100588
2018-04-26T05:24:19.340Z,100589
2018-04-26T05:26:47.652Z,100583
2018-04-26T05:29:15.956Z,100586
2018-04-26T05:31:45.264Z,100570
2018-04-26T05:34:13.557Z,100584
2018-04-26T05:36:41.845Z,100584
2018-04-26T05:39:10.361Z,100591
2018-04-26T05:41:39.537Z,100580
2018-04-26T05:44:07.820Z,100592
2018-04-26T05:46:36.121Z,100602
2018-04-26T05:49:04.428Z,100599
2018-04-26T05:51:32.722Z,100621
2018-04-26T05:54:01.025Z,100644
2018-04-26T05:56:29.422Z,100668
2018-04-26T05:58:57.771Z,100654
2018-04-26T06:01:26.074Z,100655
2018-04-26T06:03:54.444Z,100649
2018-04-26T06:36:23.444Z,100688
2018-04-26T06:38:52.512Z,100694
2018-04-26T06:41:20.792Z,100692
2018-04-26T06:43:49.096Z,100689
2018-04-26T06:46:17.645Z,100694
2018-04-26T06:48:45.964Z,100713
2018-04-26T06:51:14.317Z,100710
2018-04-26T06:53:42.617Z,100721
2018-04-26T06:56:11.030Z,100716
2018-04-26T06:58:39.376Z,100719
2018-04-26T07:01:08.607Z,100724
2018-04-26T07:03:36.903Z,100719
2018-04-26T07:06:05.223Z,100725
2018-04-26T07:08:33.608Z,100719
2018-04-26T07:11:02.708Z,100722
2018-04-26T07:13:31.992Z,100725
2018-04-26T07:16:00.547Z,100722
2018-04-26T07:18:29.036Z,100723
2018-04-26T07:20:57.325Z,100731
2018-04-26T07:23:25.632Z,100732
2018-04-26T07:25:54.717Z,100735
2018-04-26T07:28:23.041Z,100740
2018-04-26T07:30:51.504Z,100735
2018-04-26T07:33:19.842Z,100747
2018-04-26T07:35:48.261Z,100741
2018-04-26T07:38:16.650Z,100745
2018-04-26T07:40:44.936Z,100751
2018-04-26T07:43:13.283Z,100754
2018-04-26T07:45:41.683Z,100752
2018-04-26T07:48:09.951Z,100756
2018-04-26T07:50:38.297Z,100750
2018-04-26T07:53:07.424Z,100749
2018-04-26T07:55:36.508Z,100758
2018-04-26T07:58:06.706Z,100756
2018-04-26T08:00:35.026Z,100759
2018-04-26T08:03:03.522Z,100755
2018-04-26T08:05:31.910Z,100756
2018-04-26T08:08:00.322Z,100764
2018-04-26T08:10:28.827Z,100765
2018-04-26T08:12:57.198Z,100763
2018-04-26T08:15:26.288Z,100764
2018-04-26T08:17:55.428Z,100760
2018-04-26T08:20:23.772Z,100765
2018-04-26T08:22:52.232Z,100763
2018-04-26T08:25:21.376Z,100773
2018-04-26T08:27:49.691Z,100771
2018-04-26T08:30:18.082Z,100765
2018-04-26T08:32:46.749Z,100767
2018-04-26T08:35:16.381Z,100766
2018-04-26T08:37:46.640Z,100771
2018-04-26T08:40:15.069Z,100781
2018-04-26T08:42:43.379Z,100769
2018-04-26T08:45:11.746Z,100775
2018-04-26T08:47:40.136Z,100777
2018-04-26T08:50:08.425Z,100771
2018-04-26T08:52:36.791Z,100775
2018-04-26T08:55:05.237Z,100776
2018-04-26T08:57:33.552Z,100785
2018-04-26T09:00:01.863Z,100783
2018-04-26T09:02:30.332Z,100786
2018-04-26T09:04:58.786Z,100779
2018-04-26T09:07:27.088Z,100769
2018-04-26T09:09:57.412Z,100780
2018-04-26T09:12:27.697Z,100773
2018-04-26T09:14:56.848Z,100790
2018-04-26T09:17:25.175Z,100780
2018-04-26T09:19:54.248Z,100776
2018-04-26T09:22:23.396Z,100773
2018-04-26T09:24:51.666Z,100782
2018-04-26T09:27:19.943Z,100799
2018-04-26T09:29:48.396Z,100788
2018-04-26T09:32:16.744Z,100789
2018-04-26T09:34:45.077Z,100786
2018-04-26T09:37:13.521Z,100783
2018-04-26T09:39:41.830Z,100788
2018-04-26T09:42:10.342Z,100783
2018-04-26T09:44:38.730Z,100782
2018-04-26T09:47:08.491Z,100786
2018-04-26T09:49:36.827Z,100791
2018-04-26T09:52:06.163Z,100789
2018-04-26T09:54:34.461Z,100787
2018-04-26T09:57:02.794Z,100802
2018-04-26T09:59:31.968Z,100791
2018-04-26T10:02:03.213Z,100791
2018-04-26T10:04:37.229Z,100804
2018-04-26T10:07:05.550Z,100809
2018-04-26T10:09:33.837Z,100803
2018-04-26T10:12:02.165Z,100798
2018-04-26T10:14:30.472Z,100804
2018-04-26T10:16:59.797Z,100805
2018-04-26T10:19:28.106Z,100806
2018-04-26T10:21:56.521Z,100818
2018-04-26T10:24:25.590Z,100813
2018-04-26T10:26:54.077Z,100819
2018-04-26T10:29:22.379Z,100831
2018-04-26T10:31:51.476Z,100825
2018-04-26T10:34:20.671Z,100824
2018-04-26T10:36:49.321Z,100829
2018-04-26T10:39:17.625Z,100824
2018-04-26T10:41:46.925Z,100824
2018-04-26T10:44:16.202Z,100822
2018-04-26T10:46:44.495Z,100823
2018-04-26T10:49:13.565Z,100820
2018-04-26T10:51:41.896Z,100822
2018-04-26T10:54:11.669Z,100822
2018-04-26T10:56:40.062Z,100818
2018-04-26T10:59:09.130Z,100813
2018-04-26T11:01:37.497Z,100820
2018-04-26T11:04:06.817Z,100820
2018-04-26T11:06:35.080Z,100822
2018-04-26T11:09:03.396Z,100820
2018-04-26T11:11:33.609Z,100828
2018-04-26T11:14:01.980Z,100825
2018-04-26T11:16:30.436Z,100831
2018-04-26T11:18:58.762Z,100828
2018-04-26T11:21:27.069Z,100823
2018-04-26T11:23:55.710Z,100818
2018-04-26T11:26:24.974Z,100820
2018-04-26T11:28:53.306Z,100809
2018-04-26T11:31:21.771Z,100815
2018-04-26T11:33:50.838Z,100820
2018-04-26T11:36:19.159Z,100799
2018-04-26T11:38:47.528Z,100804
2018-04-26T11:41:15.979Z,100798
2018-04-26T11:43:44.552Z,100786
2018-04-26T11:46:13.889Z,100781
2018-04-26T11:48:42.983Z,100791
2018-04-26T11:51:12.326Z,100791
2018-04-26T11:53:40.692Z,100808
2018-04-26T11:56:08.997Z,100793
2018-04-26T11:58:37.368Z,100797
2018-04-26T12:01:05.680Z,100811
2018-04-26T12:03:34.813Z,100814
2018-04-26T12:06:03.152Z,100807
2018-04-26T12:08:32.278Z,100805
2018-04-26T12:11:00.598Z,100808
2018-04-26T12:13:29.034Z,100810
2018-04-26T12:15:57.717Z,100804
2018-04-26T12:18:26.032Z,100799
2018-04-26T12:20:54.335Z,100797
2018-04-26T12:23:22.679Z,100790
2018-04-26T12:25:51.040Z,100783
2018-04-26T12:28:19.561Z,100778
2018-04-26T12:30:48.043Z,100778
2018-04-26T12:33:16.391Z,100774
2018-04-26T12:35:44.839Z,100787
2018-04-26T12:38:13.144Z,100787
2018-04-26T12:40:41.631Z,100812
2018-04-26T12:43:10.051Z,100792
2018-04-26T12:45:38.403Z,100798
2018-04-26T12:48:06.969Z,100805
2018-04-26T12:50:35.314Z,100802
2018-04-26T12:53:04.815Z,100819
2018-04-26T12:55:35.183Z,100832
2018-04-26T12:58:03.722Z,100824
2018-04-26T13:00:31.997Z,100829
2018-04-26T13:03:01.180Z,100819
2018-04-26T13:05:30.413Z,100818
2018-04-26T13:07:58.836Z,100803
2018-04-26T13:10:27.156Z,100805
2018-04-26T13:12:55.526Z,100814
2018-04-26T13:15:24.710Z,100800
2018-04-26T13:17:53.313Z,100809
2018-04-26T13:20:21.731Z,100829
2018-04-26T13:22:50.274Z,100830
2018-04-26T13:25:18.638Z,100826
2018-04-26T13:27:47.140Z,100824
2018-04-26T13:30:15.838Z,100827
2018-04-26T13:32:44.967Z,100834
2018-04-26T13:35:13.284Z,100823
2018-04-26T13:37:42.417Z,100813
2018-04-26T13:40:10.985Z,100802
2018-04-26T13:42:39.481Z,100799
2018-04-26T13:45:08.034Z,100798
2018-04-26T13:47:36.376Z,100794
2018-04-26T13:50:04.781Z,100797
2018-04-26T13:52:33.986Z,100796
2018-04-26T13:55:03.208Z,100807
2018-04-26T13:57:31.563Z,100843
2018-04-26T14:00:00.176Z,100856
2018-04-26T14:02:28.784Z,100864
2018-04-26T14:04:57.156Z,100889
2018-04-26T14:07:26.508Z,100874
2018-04-26T14:09:54.858Z,100874
2018-04-26T14:12:23.376Z,100878
2018-04-26T14:14:51.713Z,100880
2018-04-26T14:17:21.248Z,100874
2018-04-26T14:19:50.376Z,100868
2018-04-26T14:22:18.806Z,100854
2018-04-26T14:24:47.215Z,100840
2018-04-26T14:27:15.581Z,100837
2018-04-26T14:29:44.713Z,100827
2018-04-26T14:32:13.278Z,100819
2018-04-26T14:34:41.597Z,100811
2018-04-26T14:37:11.022Z,100815
2018-04-26T14:39:39.442Z,100808
2018-04-26T14:42:07.746Z,100808
2018-04-26T14:44:36.086Z,100803
2018-04-26T14:47:04.861Z,100799
2018-04-26T14:49:34.258Z,100797
2018-04-26T14:52:03.571Z,100795
2018-04-26T14:54:31.953Z,100794
2018-04-26T14:57:00.490Z,100797
2018-04-26T14:59:29.728Z,100802
2018-04-26T15:01:58.357Z,100802
2018-04-26T15:04:26.781Z,100800
2018-04-26T15:06:55.128Z,100795
2018-04-26T15:09:23.503Z,100786
2018-04-26T15:11:51.928Z,100795
2018-04-26T15:14:21.092Z,100806
2018-04-26T15:16:49.547Z,100798
2018-04-26T15:19:18.969Z,100799
2018-04-26T15:21:47.345Z,100798
2018-04-26T15:24:15.747Z,100795
2018-04-26T15:26:44.914Z,100786
2018-04-26T15:29:13.207Z,100815
2018-04-26T15:31:41.816Z,100821
2018-04-26T15:34:11.144Z,100830
2018-04-26T15:36:39.507Z,100829
2018-04-26T15:39:08.009Z,100827
2018-04-26T15:41:36.329Z,100821
2018-04-26T15:44:04.671Z,100815
2018-04-26T15:46:33.014Z,100815
2018-04-26T15:49:02.105Z,100822
2018-04-26T15:51:30.664Z,100839
2018-04-26T15:54:16.878Z,100856
2018-04-26T15:57:03.808Z,100875
2018-04-26T15:59:49.987Z,100847
2018-04-26T16:02:57.694Z,100821
2018-04-26T16:05:44.598Z,100805
2018-04-26T16:08:36.773Z,100809
2018-04-26T16:11:24.475Z,100820
2018-04-26T16:14:05.827Z,100823
2018-04-26T16:20:14.433Z,100831
2018-04-26T16:23:05.687Z,100831
2018-04-26T16:25:51.755Z,100826
2018-04-26T16:28:43.443Z,100831
2018-04-26T16:31:36.265Z,100827
2018-04-26T16:34:22.077Z,100822
2018-04-26T16:37:08.368Z,100819
2018-04-26T16:39:36.871Z,100821
2018-04-26T16:42:05.322Z,100820
2018-04-26T16:44:34.462Z,100819
2018-04-26T16:47:02.884Z,100832
2018-04-26T16:49:31.306Z,100825
2018-04-26T16:51:59.774Z,100828
2018-04-26T16:54:28.300Z,100820
2018-04-26T16:56:56.764Z,100809
2018-04-26T16:59:25.106Z,100799
2018-04-26T17:01:53.440Z,100797
2018-04-26T17:04:23.528Z,100799
2018-04-26T17:06:53.836Z,100793
2018-04-26T17:09:22.915Z,100787
2018-04-26T17:11:53.130Z,100787
2018-04-26T17:14:23.440Z,100787
2018-04-26T17:16:52.950Z,100787
2018-04-26T17:19:23.252Z,100794
2018-04-26T17:21:51.633Z,100798
2018-04-26T17:24:20.005Z,100801
2018-04-26T17:26:48.410Z,100806
2018-04-26T17:29:16.794Z,100806
2018-04-26T17:31:46.004Z,100806
2018-04-26T17:34:15.090Z,100808
2018-04-26T17:36:44.335Z,100815
2018-04-26T17:39:12.932Z,100817
2018-04-26T17:41:41.311Z,100812
2018-04-26T17:44:10.184Z,100813
2018-04-26T17:46:38.541Z,100814
2018-04-26T17:49:07.013Z,100829
2018-04-26T17:51:35.570Z,100837
2018-04-26T17:54:04.100Z,100855
2018-04-26T17:56:33.351Z,100882
2018-04-26T17:59:04.391Z,100944
2018-04-26T18:01:32.790Z,100956
2018-04-26T18:04:02.080Z,100933
2018-04-26T18:06:30.448Z,100917
2018-04-26T18:08:58.881Z,100917
2018-04-26T18:11:27.228Z,100906
2018-04-26T18:13:56.614Z,100902
2018-04-26T18:16:24.953Z,100899
2018-04-26T18:18:53.300Z,100893
2018-04-26T18:21:21.715Z,100886
2018-04-26T18:23:50.253Z,100884
2018-04-26T18:26:19.227Z,100881
2018-04-26T18:28:47.694Z,100884
2018-04-26T18:31:16.174Z,100888
2018-04-26T18:33:46.915Z,100891
2018-04-26T18:36:15.338Z,100890
2018-04-26T18:38:43.948Z,100886
2018-04-26T18:41:12.354Z,100891
2018-04-26T18:43:40.706Z,100893
2018-04-26T18:46:09.045Z,100895
2018-04-26T18:48:37.409Z,100904
2018-04-26T18:51:06.549Z,100909
2018-04-26T18:53:35.055Z,100916
2018-04-26T18:56:03.723Z,100916
2018-04-26T18:58:32.110Z,100919
2018-04-26T19:01:00.439Z,100921
2018-04-26T19:03:28.799Z,100929
2018-04-26T19:05:57.960Z,100925
2018-04-26T19:08:26.349Z,100928
2018-04-26T19:10:54.718Z,100924
2018-04-26T19:13:23.356Z,100928
2018-04-26T19:15:51.774Z,100928
2018-04-26T19:18:20.122Z,100936
2018-04-26T19:20:48.459Z,100927
2018-04-26T19:23:17.279Z,100928
2018-04-26T19:25:45.651Z,100940
2018-04-26T19:28:15.000Z,100947
2018-04-26T19:30:43.305Z,100946
2018-04-26T19:33:11.748Z,100944
2018-04-26T19:35:40.139Z,100945
2018-04-26T19:38:08.640Z,100941
2018-04-26T19:40:37.205Z,100946
2018-04-26T19:43:06.187Z,100950
2018-04-26T19:45:34.540Z,100951
2018-04-26T19:48:02.909Z,100949
2018-04-26T19:50:31.980Z,100945
2018-04-26T19:53:01.091Z,100939
2018-04-26T19:55:30.320Z,100941
2018-04-26T19:57:58.845Z,100933
2018-04-26T20:00:28.052Z,100930
2018-04-26T20:02:57.170Z,100929
2018-04-26T20:05:25.500Z,100924
2018-04-26T20:07:53.942Z,100926
2018-04-26T20:10:22.408Z,100929
2018-04-26T20:12:50.867Z,100932
2018-04-26T20:15:20.203Z,100931
2018-04-26T20:17:48.687Z,100925
2018-04-26T20:20:17.083Z,100919
2018-04-26T20:22:45.746Z,100922
2018-04-26T20:25:14.968Z,100922
2018-04-26T20:27:43.414Z,100922
2018-04-26T20:30:11.865Z,100925
2018-04-26T20:32:40.374Z,100921
2018-04-26T20:35:08.725Z,100914
2018-04-26T20:37:37.135Z,100917
2018-04-26T20:40:05.641Z,100915
2018-04-26T20:42:33.988Z,100915
2018-04-26T20:45:02.501Z,100916
2018-04-26T20:47:30.985Z,100909
2018-04-26T20:50:00.232Z,100909
2018-04-26T20:52:29.332Z,100912
2018-04-26T20:54:58.863Z,100914
2018-04-26T20:57:27.204Z,100913
2018-04-26T20:59:56.326Z,100912
2018-04-26T21:02:24.688Z,100914
2018-04-26T21:04:53.987Z,100916
2018-04-26T21:07:23.087Z,100908
2018-04-26T21:09:51.426Z,100909
2018-04-26T21:12:19.757Z,100916
2018-04-26T21:14:48.129Z,100913
2018-04-26T21:17:16.560Z,100912
2018-04-26T21:22:19.397Z,100910
2018-04-26T21:24:47.883Z,100911
2018-04-26T21:27:16.382Z,100908
2018-04-26T21:29:44.702Z,100913
2018-04-26T21:32:13.169Z,100910
2018-04-26T21:34:41.520Z,100903
2018-04-26T21:37:09.858Z,100901
2018-04-26T21:39:38.276Z,100905
2018-04-26T21:42:06.567Z,100903
2018-04-26T21:44:34.935Z,100908
2018-04-26T21:47:03.296Z,100913
2018-04-26T21:49:31.003Z,100912
2018-04-26T21:52:04.976Z,100917
2018-04-26T21:54:38.820Z,100916
2018-04-26T21:57:12.727Z,100913
2018-04-26T21:59:46.605Z,100912
2018-04-26T22:02:20.442Z,100912
2018-04-26T22:04:55.531Z,100914
2018-04-26T22:07:23.881Z,100917
2018-04-26T22:09:52.172Z,100915
2018-04-26T22:12:22.371Z,100913
2018-04-26T22:14:50.734Z,100914
2018-04-26T22:17:19.041Z,100917
2018-04-26T22:19:48.107Z,100918
2018-04-26T22:22:16.547Z,100916
2018-04-26T22:24:44.874Z,100909
2018-04-26T22:27:13.460Z,100909
2018-04-26T22:29:42.830Z,100909
2018-04-26T22:32:11.165Z,100905
2018-04-26T22:34:39.604Z,100910
2018-04-26T22:37:07.890Z,100911
2018-04-26T22:39:36.346Z,100910
2018-04-26T22:42:04.679Z,100910
2018-04-26T22:44:32.974Z,100905
2018-04-26T22:47:01.267Z,100907
2018-04-26T22:49:29.879Z,100910
2018-04-26T22:51:58.356Z,100905
2018-04-26T22:54:26.669Z,100910
2018-04-26T22:56:55.700Z,100910
2018-04-26T22:59:23.981Z,100907
2018-04-26T23:01:52.295Z,100911
2018-04-26T23:04:20.581Z,100911
2018-04-26T23:06:49.799Z,100912
2018-04-26T23:09:18.071Z,100904
2018-04-26T23:11:47.140Z,100905
2018-04-26T23:14:15.436Z,100912
2018-04-26T23:16:44.489Z,100904
2018-04-26T23:19:12.829Z,100905
2018-04-26T23:21:41.179Z,100905
2018-04-26T23:24:11.465Z,100902
2018-04-26T23:26:39.811Z,100903
2018-04-26T23:29:08.146Z,100898
2018-04-26T23:31:36.515Z,100901
2018-04-26T23:34:04.855Z,100903
2018-04-26T23:36:33.140Z,100905
2018-04-26T23:39:01.566Z,100898
2018-04-26T23:41:30.701Z,100900
2018-04-26T23:43:59.023Z,100901
2018-04-26T23:46:27.322Z,100895
2018-04-26T23:48:56.379Z,100896
2018-04-26T23:51:24.749Z,100885
2018-04-26T23:53:53.046Z,100886
2018-04-26T23:56:21.407Z,100883
2018-04-26T23:58:49.674Z,100885
